METAR Data

Data at: 2212 UTC 17 Nov 2018

METAR for:KSAN (San Diego Intl Arpt, CA, US)
Text:KSAN 172151Z 28005KT 10SM FEW060 SCT120 BKN200 23/M01 A3002 RMK AO2 SLP164 T02281006
Temperature: 22.8°C ( 73°F)
Dewpoint: -0.6°C ( 31°F) [RH = 21%]
Pressure (altimeter):30.02 inches Hg (1016.7 mb) [Sea level pressure: 1016.4 mb]
Winds:from the W (280 degrees) at 6 MPH (5 knots; 2.6 m/s)
Visibility:10 or more sm (16+ km)
Ceiling:20000 feet AGL
Clouds: few clouds at 6000 feet AGL, scattered clouds at 12000 feet AGL, broken clouds at 20000 feet AGL